EDT,Max TemperatureF,Mean TemperatureF,Min TemperatureF,Max Dew PointF,MeanDew PointF,Min DewpointF,Max Humidity, Mean Humidity, Min Humidity, Max Sea Level PressureIn, Mean Sea Level PressureIn, Min Sea Level PressureIn, Max VisibilityMiles, Mean VisibilityMiles, Min VisibilityMiles, Max Wind SpeedMPH, Mean Wind SpeedMPH, Max Gust SpeedMPH,PrecipitationIn, CloudCover, Events, WindDirDegrees
2012-10-1,66,52,38,48,41,36,93,68,43,29.98,29.93,29.87,10,8,2,7,1,9,0.00,4,,81
2012-10-2,70,61,51,49,46,42,83,60,37,29.94,29.88,29.84,10,10,10,14,5,18,0.01,6,Rain,54
2012-10-3,65,60,55,57,53,49,86,77,67,30.05,29.99,29.92,10,8,1,15,5,18,0.03,8,Rain,190
2012-10-4,76,66,56,59,53,48,90,64,38,30.08,30.03,29.98,10,8,2,23,12,28,0.26,6,Rain-Thunderstorm,222
2012-10-5,57,51,45,54,42,37,83,69,54,30.09,30.04,29.97,10,10,10,20,11,25,T,7,Rain,248
2012-10-6,47,43,39,40,35,30,92,75,58,30.15,30.04,29.95,10,10,10,18,8,26,T,7,,264
2012-10-7,47,41,35,37,35,30,92,73,53,30.17,30.13,30.11,10,10,10,13,3,16,T,7,Rain,251
2012-10-8,54,43,32,31,28,23,89,59,29,30.21,30.15,30.10,10,10,10,17,9,24,0.00,2,,197
2012-10-9,62,51,40,37,33,27,65,52,39,30.08,29.97,29.78,10,10,10,25,14,33,0.00,5,,191
2012-10-10,48,41,34,41,35,27,89,69,49,30.17,29.95,29.81,10,10,5,23,10,31,0.18,8,Rain,276
2012-10-11,62,48,33,40,32,28,89,61,32,30.21,30.12,30.02,10,10,10,30,12,39,0.05,4,Rain,241
2012-10-12,51,41,31,37,29,23,89,61,32,30.48,30.38,30.22,10,10,9,12,4,16,T,2,Rain,14
2012-10-13,63,50,36,60,41,28,96,81,65,30.38,30.09,29.87,10,6,2,18,12,24,0.82,7,Rain,165
2012-10-14,70,60,50,63,59,49,93,80,66,29.84,29.64,29.40,10,5,2,29,14,40,0.81,8,Rain-Thunderstorm,204
2012-10-15,50,48,45,46,41,37,86,81,76,29.97,29.81,29.56,10,10,3,25,11,32,0.01,8,Rain,286
2012-10-16,60,47,33,42,36,30,92,67,42,30.00,29.89,29.71,10,10,10,17,7,21,T,4,,167
2012-10-17,74,65,55,55,48,41,86,60,33,29.69,29.60,29.52,10,10,5,29,15,38,0.35,6,Rain-Thunderstorm,178
2012-10-18,59,52,45,54,43,32,93,68,43,29.65,29.47,29.32,10,9,2,30,13,37,0.37,7,Rain,193
2012-10-19,52,47,42,45,42,37,93,82,71,29.64,29.57,29.53,10,9,7,23,8,30,0.23,8,Rain,165
2012-10-20,56,49,41,43,42,40,92,74,55,29.92,29.70,29.57,10,9,5,16,8,20,0.02,6,Rain,253
2012-10-21,61,49,36,45,39,36,100,73,46,30.10,30.04,29.93,10,6,0,13,3,17,0.00,1,Fog,219
2012-10-22,70,56,42,59,51,38,97,80,63,30.08,30.03,29.96,10,8,2,16,5,22,0.79,6,Rain-Thunderstorm,161
2012-10-23,67,64,60,61,59,57,100,89,78,29.99,29.95,29.89,10,5,1,15,4,17,0.11,8,Rain-Thunderstorm,207
2012-10-24,78,68,58,60,58,56,97,75,52,30.01,29.97,29.94,10,10,6,14,7,20,0.00,6,,184
2012-10-25,76,66,55,58,54,52,73,60,46,29.94,29.87,29.78,10,10,10,30,15,38,T,3,,185
2012-10-26,55,47,39,52,37,30,92,71,50,30.27,30.14,29.87,10,10,3,24,9,30,0.03,7,Rain,305
2012-10-27,52,41,30,33,30,27,92,68,44,30.28,30.25,30.19,10,10,10,16,6,21,0.00,4,,358
2012-10-28,49,41,33,34,29,22,76,62,48,30.27,30.24,30.20,10,10,10,24,11,31,T,6,Rain,12
2012-10-29,44,39,34,27,24,18,75,56,36,30.19,30.10,29.86,10,10,10,23,15,37,0.00,7,,345
2012-10-30,39,37,34,35,31,19,92,68,44,29.83,29.64,29.56,10,8,3,29,16,39,0.34,8,Rain-Snow,341
2012-10-31,42,39,35,37,35,33,100,90,79,29.72,29.64,29.59,10,6,2,15,12,24,0.05,8,Rain,306